sensor_id;sensor_type;location;lat;lon;timestamp;P1;durP1;ratioP1;P2;durP2;ratioP2
74233;SDS011;62591;55.764;37.718;2022-11-15T00:02:37;4.50;;;0.90;;
74233;SDS011;62591;55.764;37.718;2022-11-15T00:05:24;3.33;;;1.00;;
74233;SDS011;62591;55.764;37.718;2022-11-15T00:08:12;4.20;;;0.88;;
74233;SDS011;62591;55.764;37.718;2022-11-15T00:11:02;1.92;;;0.73;;
74233;SDS011;62591;55.764;37.718;2022-11-15T00:13:49;4.38;;;0.95;;
74233;SDS011;62591;55.764;37.718;2022-11-15T00:16:36;2.38;;;0.80;;
74233;SDS011;62591;55.764;37.718;2022-11-15T00:19:24;4.28;;;1.00;;
74233;SDS011;62591;55.764;37.718;2022-11-15T00:22:14;2.88;;;0.80;;
74233;SDS011;62591;55.764;37.718;2022-11-15T00:25:03;5.00;;;0.80;;
74233;SDS011;62591;55.764;37.718;2022-11-15T00:27:54;3.30;;;0.82;;
74233;SDS011;62591;55.764;37.718;2022-11-15T00:30:42;4.43;;;0.80;;
74233;SDS011;62591;55.764;37.718;2022-11-15T00:33:29;3.78;;;1.00;;
74233;SDS011;62591;55.764;37.718;2022-11-15T00:36:18;2.50;;;0.82;;
74233;SDS011;62591;55.764;37.718;2022-11-15T00:39:05;3.40;;;1.20;;
74233;SDS011;62591;55.764;37.718;2022-11-15T00:41:54;3.63;;;1.20;;
74233;SDS011;62591;55.764;37.718;2022-11-15T00:44:41;3.78;;;1.00;;
74233;SDS011;62591;55.764;37.718;2022-11-15T00:47:30;3.03;;;1.00;;
74233;SDS011;62591;55.764;37.718;2022-11-15T00:50:17;3.97;;;1.20;;
74233;SDS011;62591;55.764;37.718;2022-11-15T00:53:04;3.03;;;0.85;;
74233;SDS011;62591;55.764;37.718;2022-11-15T00:55:51;3.72;;;1.00;;
74233;SDS011;62591;55.764;37.718;2022-11-15T00:58:40;6.18;;;1.38;;
74233;SDS011;62591;55.764;37.718;2022-11-15T01:01:26;4.53;;;1.00;;
74233;SDS011;62591;55.764;37.718;2022-11-15T01:04:13;4.05;;;0.90;;
74233;SDS011;62591;55.764;37.718;2022-11-15T01:07:00;3.75;;;0.77;;
74233;SDS011;62591;55.764;37.718;2022-11-15T01:09:48;3.10;;;0.73;;
74233;SDS011;62591;55.764;37.718;2022-11-15T01:12:35;3.80;;;1.20;;
74233;SDS011;62591;55.764;37.718;2022-11-15T01:15:24;2.10;;;1.05;;
74233;SDS011;62591;55.764;37.718;2022-11-15T01:18:11;2.20;;;0.95;;
74233;SDS011;62591;55.764;37.718;2022-11-15T01:20:58;3.78;;;1.10;;
74233;SDS011;62591;55.764;37.718;2022-11-15T01:23:45;3.22;;;1.00;;
74233;SDS011;62591;55.764;37.718;2022-11-15T01:26:33;3.65;;;1.10;;
74233;SDS011;62591;55.764;37.718;2022-11-15T01:29:20;4.50;;;1.10;;
74233;SDS011;62591;55.764;37.718;2022-11-15T01:32:09;2.92;;;1.20;;
74233;SDS011;62591;55.764;37.718;2022-11-15T01:34:56;6.45;;;1.00;;
74233;SDS011;62591;55.764;37.718;2022-11-15T01:37:43;2.55;;;0.90;;
74233;SDS011;62591;55.764;37.718;2022-11-15T01:40:31;3.17;;;0.90;;
74233;SDS011;62591;55.764;37.718;2022-11-15T01:43:19;2.72;;;0.98;;
74233;SDS011;62591;55.764;37.718;2022-11-15T01:46:17;2.97;;;1.15;;
74233;SDS011;62591;55.764;37.718;2022-11-15T01:49:15;3.28;;;1.00;;
74233;SDS011;62591;55.764;37.718;2022-11-15T01:52:06;2.92;;;0.80;;
74233;SDS011;62591;55.764;37.718;2022-11-15T01:54:59;3.80;;;0.93;;
74233;SDS011;62591;55.764;37.718;2022-11-15T01:57:55;2.95;;;1.05;;
74233;SDS011;62591;55.764;37.718;2022-11-15T02:00:44;3.40;;;0.85;;
74233;SDS011;62591;55.764;37.718;2022-11-15T02:03:33;5.13;;;0.95;;
74233;SDS011;62591;55.764;37.718;2022-11-15T02:06:29;3.47;;;0.98;;
74233;SDS011;62591;55.764;37.718;2022-11-15T02:09:16;3.45;;;1.70;;
74233;SDS011;62591;55.764;37.718;2022-11-15T02:12:04;2.78;;;1.35;;
74233;SDS011;62591;55.764;37.718;2022-11-15T02:14:53;2.60;;;1.00;;
74233;SDS011;62591;55.764;37.718;2022-11-15T02:17:52;2.95;;;0.82;;
74233;SDS011;62591;55.764;37.718;2022-11-15T02:20:54;4.05;;;1.42;;
74233;SDS011;62591;55.764;37.718;2022-11-15T02:27:34;5.63;;;1.13;;
74233;SDS011;62591;55.764;37.718;2022-11-15T02:30:42;3.55;;;1.10;;
74233;SDS011;62591;55.764;37.718;2022-11-15T02:33:35;3.60;;;1.10;;
74233;SDS011;62591;55.764;37.718;2022-11-15T02:36:36;4.75;;;1.40;;
74233;SDS011;62591;55.764;37.718;2022-11-15T02:39:31;3.85;;;1.52;;
74233;SDS011;62591;55.764;37.718;2022-11-15T02:42:25;4.25;;;1.48;;
74233;SDS011;62591;55.764;37.718;2022-11-15T02:45:33;11.88;;;4.75;;
74233;SDS011;62591;55.764;37.718;2022-11-15T02:48:59;4.70;;;1.38;;
74233;SDS011;62591;55.764;37.718;2022-11-15T02:51:46;6.05;;;1.50;;
74233;SDS011;62591;55.764;37.718;2022-11-15T02:54:35;5.47;;;1.60;;
74233;SDS011;62591;55.764;37.718;2022-11-15T02:57:31;3.38;;;1.10;;
74233;SDS011;62591;55.764;37.718;2022-11-15T03:00:25;3.42;;;1.23;;
74233;SDS011;62591;55.764;37.718;2022-11-15T03:03:24;2.85;;;1.00;;
74233;SDS011;62591;55.764;37.718;2022-11-15T03:06:35;2.63;;;0.90;;
74233;SDS011;62591;55.764;37.718;2022-11-15T03:09:29;2.80;;;0.90;;
74233;SDS011;62591;55.764;37.718;2022-11-15T03:12:23;2.58;;;1.02;;
74233;SDS011;62591;55.764;37.718;2022-11-15T03:18:06;5.57;;;1.08;;
74233;SDS011;62591;55.764;37.718;2022-11-15T03:21:03;5.15;;;1.27;;
74233;SDS011;62591;55.764;37.718;2022-11-15T03:23:54;2.88;;;1.30;;
74233;SDS011;62591;55.764;37.718;2022-11-15T03:26:44;4.10;;;1.67;;
74233;SDS011;62591;55.764;37.718;2022-11-15T03:29:34;3.92;;;1.13;;
74233;SDS011;62591;55.764;37.718;2022-11-15T03:32:26;2.15;;;0.70;;
74233;SDS011;62591;55.764;37.718;2022-11-15T03:35:18;5.68;;;0.82;;
74233;SDS011;62591;55.764;37.718;2022-11-15T03:38:08;2.30;;;0.88;;
74233;SDS011;62591;55.764;37.718;2022-11-15T03:41:04;2.55;;;0.98;;
74233;SDS011;62591;55.764;37.718;2022-11-15T03:43:55;3.63;;;0.93;;
74233;SDS011;62591;55.764;37.718;2022-11-15T03:46:46;4.57;;;0.80;;
74233;SDS011;62591;55.764;37.718;2022-11-15T03:49:40;2.67;;;0.90;;
74233;SDS011;62591;55.764;37.718;2022-11-15T03:52:31;2.75;;;1.00;;
74233;SDS011;62591;55.764;37.718;2022-11-15T03:55:20;3.70;;;1.20;;
74233;SDS011;62591;55.764;37.718;2022-11-15T03:58:09;3.05;;;1.30;;
74233;SDS011;62591;55.764;37.718;2022-11-15T04:00:56;3.47;;;1.02;;
74233;SDS011;62591;55.764;37.718;2022-11-15T04:03:44;7.28;;;1.42;;
74233;SDS011;62591;55.764;37.718;2022-11-15T04:06:31;4.30;;;1.33;;
74233;SDS011;62591;55.764;37.718;2022-11-15T04:09:20;5.95;;;1.48;;
74233;SDS011;62591;55.764;37.718;2022-11-15T04:12:09;5.22;;;1.50;;
74233;SDS011;62591;55.764;37.718;2022-11-15T04:18:18;6.78;;;1.20;;
74233;SDS011;62591;55.764;37.718;2022-11-15T04:21:06;4.30;;;1.80;;
74233;SDS011;62591;55.764;37.718;2022-11-15T04:24:11;3.63;;;1.05;;
74233;SDS011;62591;55.764;37.718;2022-11-15T04:26:59;4.70;;;1.17;;
74233;SDS011;62591;55.764;37.718;2022-11-15T04:29:46;5.10;;;1.15;;
74233;SDS011;62591;55.764;37.718;2022-11-15T04:32:34;5.20;;;2.35;;
74233;SDS011;62591;55.764;37.718;2022-11-15T04:35:21;6.43;;;1.40;;
74233;SDS011;62591;55.764;37.718;2022-11-15T04:38:09;4.97;;;1.58;;
74233;SDS011;62591;55.764;37.718;2022-11-15T04:40:58;3.83;;;1.10;;
74233;SDS011;62591;55.764;37.718;2022-11-15T04:43:48;8.18;;;2.95;;
74233;SDS011;62591;55.764;37.718;2022-11-15T04:46:34;7.50;;;3.03;;
74233;SDS011;62591;55.764;37.718;2022-11-15T04:49:23;3.47;;;1.20;;
74233;SDS011;62591;55.764;37.718;2022-11-15T04:52:10;3.35;;;1.42;;
74233;SDS011;62591;55.764;37.718;2022-11-15T04:54:57;3.53;;;1.60;;
74233;SDS011;62591;55.764;37.718;2022-11-15T04:57:58;6.28;;;1.67;;
74233;SDS011;62591;55.764;37.718;2022-11-15T05:00:46;6.15;;;1.40;;
74233;SDS011;62591;55.764;37.718;2022-11-15T05:03:33;6.50;;;1.55;;
74233;SDS011;62591;55.764;37.718;2022-11-15T05:06:39;4.13;;;1.60;;
74233;SDS011;62591;55.764;37.718;2022-11-15T05:09:25;3.65;;;1.40;;
74233;SDS011;62591;55.764;37.718;2022-11-15T05:12:12;5.45;;;1.60;;
74233;SDS011;62591;55.764;37.718;2022-11-15T05:14:59;6.38;;;1.80;;
74233;SDS011;62591;55.764;37.718;2022-11-15T05:17:46;2.85;;;1.40;;
74233;SDS011;62591;55.764;37.718;2022-11-15T05:20:33;5.90;;;1.67;;
74233;SDS011;62591;55.764;37.718;2022-11-15T05:23:22;3.03;;;1.70;;
74233;SDS011;62591;55.764;37.718;2022-11-15T05:26:09;5.85;;;1.40;;
74233;SDS011;62591;55.764;37.718;2022-11-15T05:28:57;7.97;;;1.80;;
74233;SDS011;62591;55.764;37.718;2022-11-15T05:31:45;6.15;;;1.75;;
74233;SDS011;62591;55.764;37.718;2022-11-15T05:34:32;8.38;;;2.10;;
74233;SDS011;62591;55.764;37.718;2022-11-15T05:37:19;4.25;;;1.80;;
74233;SDS011;62591;55.764;37.718;2022-11-15T05:40:08;5.20;;;1.90;;
74233;SDS011;62591;55.764;37.718;2022-11-15T05:42:55;4.88;;;1.95;;
74233;SDS011;62591;55.764;37.718;2022-11-15T05:45:44;5.60;;;1.42;;
74233;SDS011;62591;55.764;37.718;2022-11-15T05:48:31;6.50;;;1.83;;
74233;SDS011;62591;55.764;37.718;2022-11-15T05:51:18;11.48;;;2.15;;
74233;SDS011;62591;55.764;37.718;2022-11-15T05:54:09;4.65;;;1.90;;
74233;SDS011;62591;55.764;37.718;2022-11-15T05:56:58;10.23;;;2.15;;
74233;SDS011;62591;55.764;37.718;2022-11-15T05:59:46;9.88;;;2.13;;
74233;SDS011;62591;55.764;37.718;2022-11-15T06:02:33;6.53;;;2.38;;
74233;SDS011;62591;55.764;37.718;2022-11-15T06:05:20;5.32;;;1.98;;
74233;SDS011;62591;55.764;37.718;2022-11-15T06:08:07;8.77;;;2.55;;
74233;SDS011;62591;55.764;37.718;2022-11-15T06:10:54;5.78;;;1.98;;
74233;SDS011;62591;55.764;37.718;2022-11-15T06:13:42;13.00;;;2.97;;
74233;SDS011;62591;55.764;37.718;2022-11-15T06:16:29;3.75;;;1.88;;
74233;SDS011;62591;55.764;37.718;2022-11-15T06:19:16;7.43;;;2.25;;
74233;SDS011;62591;55.764;37.718;2022-11-15T06:22:03;7.43;;;2.10;;
74233;SDS011;62591;55.764;37.718;2022-11-15T06:24:50;5.85;;;2.35;;
74233;SDS011;62591;55.764;37.718;2022-11-15T06:27:38;6.38;;;2.22;;
74233;SDS011;62591;55.764;37.718;2022-11-15T06:30:26;11.73;;;2.50;;
74233;SDS011;62591;55.764;37.718;2022-11-15T06:33:13;4.20;;;2.28;;
74233;SDS011;62591;55.764;37.718;2022-11-15T06:36:01;5.85;;;2.10;;
74233;SDS011;62591;55.764;37.718;2022-11-15T06:38:48;5.70;;;1.85;;
74233;SDS011;62591;55.764;37.718;2022-11-15T06:41:36;4.95;;;2.22;;
74233;SDS011;62591;55.764;37.718;2022-11-15T06:44:23;7.72;;;1.88;;
74233;SDS011;62591;55.764;37.718;2022-11-15T06:47:11;8.23;;;1.90;;
74233;SDS011;62591;55.764;37.718;2022-11-15T06:49:58;3.53;;;2.13;;
74233;SDS011;62591;55.764;37.718;2022-11-15T06:52:45;5.47;;;1.83;;
74233;SDS011;62591;55.764;37.718;2022-11-15T06:55:33;6.15;;;1.95;;
74233;SDS011;62591;55.764;37.718;2022-11-15T06:58:20;3.00;;;1.90;;
74233;SDS011;62591;55.764;37.718;2022-11-15T07:01:08;8.80;;;2.33;;
74233;SDS011;62591;55.764;37.718;2022-11-15T07:03:58;5.82;;;2.30;;
74233;SDS011;62591;55.764;37.718;2022-11-15T07:06:45;8.13;;;2.17;;
74233;SDS011;62591;55.764;37.718;2022-11-15T07:09:33;8.20;;;2.83;;
74233;SDS011;62591;55.764;37.718;2022-11-15T07:12:21;7.15;;;2.10;;
74233;SDS011;62591;55.764;37.718;2022-11-15T07:15:08;5.18;;;2.33;;
74233;SDS011;62591;55.764;37.718;2022-11-15T07:17:56;5.93;;;2.10;;
74233;SDS011;62591;55.764;37.718;2022-11-15T07:20:48;5.85;;;2.25;;
74233;SDS011;62591;55.764;37.718;2022-11-15T07:23:35;4.97;;;2.17;;
74233;SDS011;62591;55.764;37.718;2022-11-15T07:26:23;9.90;;;2.08;;
74233;SDS011;62591;55.764;37.718;2022-11-15T07:29:10;11.38;;;1.73;;
74233;SDS011;62591;55.764;37.718;2022-11-15T07:31:57;6.20;;;2.03;;
74233;SDS011;62591;55.764;37.718;2022-11-15T07:34:44;7.68;;;1.88;;
74233;SDS011;62591;55.764;37.718;2022-11-15T07:37:32;4.53;;;2.10;;
74233;SDS011;62591;55.764;37.718;2022-11-15T07:40:20;6.50;;;2.15;;
74233;SDS011;62591;55.764;37.718;2022-11-15T07:43:07;4.28;;;2.05;;
74233;SDS011;62591;55.764;37.718;2022-11-15T07:45:54;13.27;;;2.30;;
74233;SDS011;62591;55.764;37.718;2022-11-15T07:48:43;9.82;;;2.38;;
74233;SDS011;62591;55.764;37.718;2022-11-15T07:51:31;6.47;;;2.03;;
74233;SDS011;62591;55.764;37.718;2022-11-15T07:54:19;4.95;;;2.20;;
74233;SDS011;62591;55.764;37.718;2022-11-15T07:57:08;12.57;;;2.20;;
74233;SDS011;62591;55.764;37.718;2022-11-15T07:59:55;9.63;;;2.17;;
74233;SDS011;62591;55.764;37.718;2022-11-15T08:02:42;7.78;;;2.17;;
74233;SDS011;62591;55.764;37.718;2022-11-15T08:05:30;12.93;;;2.95;;
74233;SDS011;62591;55.764;37.718;2022-11-15T08:08:17;7.70;;;2.45;;
74233;SDS011;62591;55.764;37.718;2022-11-15T08:11:05;11.70;;;2.28;;
74233;SDS011;62591;55.764;37.718;2022-11-15T08:13:52;7.95;;;2.30;;
74233;SDS011;62591;55.764;37.718;2022-11-15T08:16:39;16.45;;;2.78;;
74233;SDS011;62591;55.764;37.718;2022-11-15T08:19:26;8.15;;;2.30;;
74233;SDS011;62591;55.764;37.718;2022-11-15T08:22:14;8.57;;;2.40;;
74233;SDS011;62591;55.764;37.718;2022-11-15T08:25:01;12.30;;;2.88;;
74233;SDS011;62591;55.764;37.718;2022-11-15T08:27:52;7.15;;;2.85;;
74233;SDS011;62591;55.764;37.718;2022-11-15T08:30:40;8.77;;;2.53;;
74233;SDS011;62591;55.764;37.718;2022-11-15T08:33:31;12.32;;;2.60;;
74233;SDS011;62591;55.764;37.718;2022-11-15T08:36:20;14.23;;;2.67;;
74233;SDS011;62591;55.764;37.718;2022-11-15T08:39:09;9.00;;;4.88;;
74233;SDS011;62591;55.764;37.718;2022-11-15T08:41:57;15.55;;;3.20;;
74233;SDS011;62591;55.764;37.718;2022-11-15T08:44:46;8.15;;;3.38;;
74233;SDS011;62591;55.764;37.718;2022-11-15T08:47:33;11.10;;;2.55;;
74233;SDS011;62591;55.764;37.718;2022-11-15T08:50:19;6.20;;;2.70;;
74233;SDS011;62591;55.764;37.718;2022-11-15T08:53:07;11.27;;;3.20;;
74233;SDS011;62591;55.764;37.718;2022-11-15T08:55:54;11.02;;;2.88;;
74233;SDS011;62591;55.764;37.718;2022-11-15T08:58:41;10.90;;;2.47;;
74233;SDS011;62591;55.764;37.718;2022-11-15T09:01:30;9.38;;;2.53;;
74233;SDS011;62591;55.764;37.718;2022-11-15T09:04:18;14.75;;;2.63;;
74233;SDS011;62591;55.764;37.718;2022-11-15T09:07:06;9.43;;;2.92;;
74233;SDS011;62591;55.764;37.718;2022-11-15T09:09:53;9.13;;;2.53;;
74233;SDS011;62591;55.764;37.718;2022-11-15T09:12:40;8.20;;;2.60;;
74233;SDS011;62591;55.764;37.718;2022-11-15T09:15:28;10.60;;;2.85;;
74233;SDS011;62591;55.764;37.718;2022-11-15T09:18:17;9.20;;;2.28;;
74233;SDS011;62591;55.764;37.718;2022-11-15T09:21:07;19.35;;;3.22;;
74233;SDS011;62591;55.764;37.718;2022-11-15T09:23:54;7.93;;;3.83;;
74233;SDS011;62591;55.764;37.718;2022-11-15T09:26:44;9.85;;;2.85;;
74233;SDS011;62591;55.764;37.718;2022-11-15T09:29:31;8.10;;;2.95;;
74233;SDS011;62591;55.764;37.718;2022-11-15T09:32:19;8.60;;;2.83;;
74233;SDS011;62591;55.764;37.718;2022-11-15T09:35:08;8.25;;;2.95;;
74233;SDS011;62591;55.764;37.718;2022-11-15T09:37:56;10.80;;;3.40;;
74233;SDS011;62591;55.764;37.718;2022-11-15T09:40:44;12.90;;;3.67;;
74233;SDS011;62591;55.764;37.718;2022-11-15T09:43:37;11.55;;;3.60;;
74233;SDS011;62591;55.764;37.718;2022-11-15T09:46:33;10.07;;;3.10;;
74233;SDS011;62591;55.764;37.718;2022-11-15T09:49:40;8.82;;;3.08;;
74233;SDS011;62591;55.764;37.718;2022-11-15T09:52:18;13.30;;;3.58;;
74233;SDS011;62591;55.764;37.718;2022-11-15T09:54:48;9.98;;;2.78;;
74233;SDS011;62591;55.764;37.718;2022-11-15T09:57:22;6.75;;;2.72;;
74233;SDS011;62591;55.764;37.718;2022-11-15T10:00:00;8.77;;;3.10;;
74233;SDS011;62591;55.764;37.718;2022-11-15T10:02:58;10.98;;;3.00;;
74233;SDS011;62591;55.764;37.718;2022-11-15T10:05:43;12.57;;;3.10;;
74233;SDS011;62591;55.764;37.718;2022-11-15T10:08:25;7.50;;;3.67;;
74233;SDS011;62591;55.764;37.718;2022-11-15T10:11:04;7.50;;;3.13;;
74233;SDS011;62591;55.764;37.718;2022-11-15T10:13:56;10.50;;;3.30;;
74233;SDS011;62591;55.764;37.718;2022-11-15T10:16:32;10.85;;;3.22;;
74233;SDS011;62591;55.764;37.718;2022-11-15T10:19:39;9.05;;;3.60;;
74233;SDS011;62591;55.764;37.718;2022-11-15T10:22:20;8.52;;;3.28;;
74233;SDS011;62591;55.764;37.718;2022-11-15T10:25:00;8.82;;;3.40;;
74233;SDS011;62591;55.764;37.718;2022-11-15T10:27:40;10.38;;;3.58;;
74233;SDS011;62591;55.764;37.718;2022-11-15T10:30:11;7.60;;;3.10;;
74233;SDS011;62591;55.764;37.718;2022-11-15T10:32:43;9.15;;;2.90;;
74233;SDS011;62591;55.764;37.718;2022-11-15T10:35:21;9.18;;;2.75;;
74233;SDS011;62591;55.764;37.718;2022-11-15T10:38:02;6.07;;;2.92;;
74233;SDS011;62591;55.764;37.718;2022-11-15T10:40:34;12.77;;;3.17;;
74233;SDS011;62591;55.764;37.718;2022-11-15T10:43:05;9.05;;;2.80;;
74233;SDS011;62591;55.764;37.718;2022-11-15T10:45:40;10.10;;;3.85;;
74233;SDS011;62591;55.764;37.718;2022-11-15T10:48:23;10.43;;;2.58;;
74233;SDS011;62591;55.764;37.718;2022-11-15T10:50:53;9.38;;;3.03;;
74233;SDS011;62591;55.764;37.718;2022-11-15T10:53:23;12.57;;;3.15;;
74233;SDS011;62591;55.764;37.718;2022-11-15T10:55:59;7.95;;;3.75;;
74233;SDS011;62591;55.764;37.718;2022-11-15T10:58:36;12.52;;;3.58;;
74233;SDS011;62591;55.764;37.718;2022-11-15T11:01:14;7.32;;;2.97;;
74233;SDS011;62591;55.764;37.718;2022-11-15T11:03:45;12.57;;;3.45;;
74233;SDS011;62591;55.764;37.718;2022-11-15T11:06:26;11.40;;;3.60;;
74233;SDS011;62591;55.764;37.718;2022-11-15T11:08:57;10.30;;;3.33;;
74233;SDS011;62591;55.764;37.718;2022-11-15T11:11:45;7.97;;;3.30;;
74233;SDS011;62591;55.764;37.718;2022-11-15T11:14:17;12.10;;;3.33;;
74233;SDS011;62591;55.764;37.718;2022-11-15T11:16:50;15.27;;;2.97;;
74233;SDS011;62591;55.764;37.718;2022-11-15T11:19:31;10.52;;;3.40;;
74233;SDS011;62591;55.764;37.718;2022-11-15T11:22:09;10.77;;;3.50;;
74233;SDS011;62591;55.764;37.718;2022-11-15T11:24:44;9.23;;;3.08;;
74233;SDS011;62591;55.764;37.718;2022-11-15T11:27:30;10.80;;;3.08;;
74233;SDS011;62591;55.764;37.718;2022-11-15T11:30:09;7.80;;;2.60;;
74233;SDS011;62591;55.764;37.718;2022-11-15T11:32:55;10.05;;;3.47;;
74233;SDS011;62591;55.764;37.718;2022-11-15T11:35:34;12.43;;;3.00;;
74233;SDS011;62591;55.764;37.718;2022-11-15T11:38:24;7.55;;;2.63;;
74233;SDS011;62591;55.764;37.718;2022-11-15T11:41:04;12.82;;;2.97;;
74233;SDS011;62591;55.764;37.718;2022-11-15T11:43:45;9.02;;;2.92;;
74233;SDS011;62591;55.764;37.718;2022-11-15T11:46:27;11.07;;;2.88;;
74233;SDS011;62591;55.764;37.718;2022-11-15T11:49:15;13.02;;;3.47;;
74233;SDS011;62591;55.764;37.718;2022-11-15T11:51:50;9.77;;;2.95;;
74233;SDS011;62591;55.764;37.718;2022-11-15T11:54:23;11.13;;;3.72;;
74233;SDS011;62591;55.764;37.718;2022-11-15T11:57:03;17.23;;;3.28;;
74233;SDS011;62591;55.764;37.718;2022-11-15T11:59:41;10.10;;;3.33;;
74233;SDS011;62591;55.764;37.718;2022-11-15T12:02:15;8.95;;;3.28;;
74233;SDS011;62591;55.764;37.718;2022-11-15T12:04:49;10.00;;;2.72;;
74233;SDS011;62591;55.764;37.718;2022-11-15T12:07:22;11.65;;;3.72;;
74233;SDS011;62591;55.764;37.718;2022-11-15T12:09:55;10.10;;;3.55;;
74233;SDS011;62591;55.764;37.718;2022-11-15T12:12:31;5.55;;;2.95;;
74233;SDS011;62591;55.764;37.718;2022-11-15T12:15:12;12.35;;;3.45;;
74233;SDS011;62591;55.764;37.718;2022-11-15T12:17:44;8.55;;;3.28;;
74233;SDS011;62591;55.764;37.718;2022-11-15T12:20:15;7.53;;;3.13;;
74233;SDS011;62591;55.764;37.718;2022-11-15T12:22:47;11.35;;;3.50;;
74233;SDS011;62591;55.764;37.718;2022-11-15T12:25:24;10.25;;;3.03;;
74233;SDS011;62591;55.764;37.718;2022-11-15T12:28:00;7.30;;;3.10;;
74233;SDS011;62591;55.764;37.718;2022-11-15T12:30:41;17.88;;;3.70;;
74233;SDS011;62591;55.764;37.718;2022-11-15T12:36:05;10.13;;;3.60;;
74233;SDS011;62591;55.764;37.718;2022-11-15T12:38:52;13.23;;;3.63;;
74233;SDS011;62591;55.764;37.718;2022-11-15T12:41:23;11.45;;;3.92;;
74233;SDS011;62591;55.764;37.718;2022-11-15T12:43:56;9.13;;;3.10;;
74233;SDS011;62591;55.764;37.718;2022-11-15T12:49:42;11.15;;;3.70;;
74233;SDS011;62591;55.764;37.718;2022-11-15T12:52:14;11.48;;;3.92;;
74233;SDS011;62591;55.764;37.718;2022-11-15T12:54:51;18.75;;;4.10;;
74233;SDS011;62591;55.764;37.718;2022-11-15T12:57:31;9.05;;;3.60;;
74233;SDS011;62591;55.764;37.718;2022-11-15T13:03:26;7.80;;;3.10;;
74233;SDS011;62591;55.764;37.718;2022-11-15T13:05:58;9.50;;;2.80;;
74233;SDS011;62591;55.764;37.718;2022-11-15T13:08:45;8.30;;;3.20;;
74233;SDS011;62591;55.764;37.718;2022-11-15T13:17:23;9.98;;;3.25;;
74233;SDS011;62591;55.764;37.718;2022-11-15T13:20:00;9.20;;;3.28;;
74233;SDS011;62591;55.764;37.718;2022-11-15T13:22:42;9.70;;;3.00;;
74233;SDS011;62591;55.764;37.718;2022-11-15T13:28:36;7.50;;;3.63;;
74233;SDS011;62591;55.764;37.718;2022-11-15T13:33:56;10.23;;;3.63;;
74233;SDS011;62591;55.764;37.718;2022-11-15T13:36:29;9.13;;;3.53;;
74233;SDS011;62591;55.764;37.718;2022-11-15T13:41:33;9.65;;;3.70;;
74233;SDS011;62591;55.764;37.718;2022-11-15T13:44:18;9.30;;;3.20;;
74233;SDS011;62591;55.764;37.718;2022-11-15T13:46:48;12.35;;;3.97;;
74233;SDS011;62591;55.764;37.718;2022-11-15T13:49:17;12.60;;;3.50;;
74233;SDS011;62591;55.764;37.718;2022-11-15T13:51:47;10.40;;;4.82;;
74233;SDS011;62591;55.764;37.718;2022-11-15T13:54:20;13.23;;;4.65;;
74233;SDS011;62591;55.764;37.718;2022-11-15T13:56:55;20.92;;;7.10;;
74233;SDS011;62591;55.764;37.718;2022-11-15T13:59:30;22.95;;;8.45;;
74233;SDS011;62591;55.764;37.718;2022-11-15T14:02:02;27.98;;;14.95;;
74233;SDS011;62591;55.764;37.718;2022-11-15T14:04:39;18.85;;;8.02;;
74233;SDS011;62591;55.764;37.718;2022-11-15T14:07:17;18.70;;;7.35;;
74233;SDS011;62591;55.764;37.718;2022-11-15T14:09:47;22.20;;;9.23;;
74233;SDS011;62591;55.764;37.718;2022-11-15T14:12:22;22.67;;;8.68;;
74233;SDS011;62591;55.764;37.718;2022-11-15T14:14:56;18.48;;;8.38;;
74233;SDS011;62591;55.764;37.718;2022-11-15T14:17:37;27.70;;;14.15;;
74233;SDS011;62591;55.764;37.718;2022-11-15T14:20:20;17.50;;;6.38;;
74233;SDS011;62591;55.764;37.718;2022-11-15T14:23:00;13.25;;;5.63;;
74233;SDS011;62591;55.764;37.718;2022-11-15T14:25:35;14.30;;;4.82;;
74233;SDS011;62591;55.764;37.718;2022-11-15T14:28:14;9.48;;;4.50;;
74233;SDS011;62591;55.764;37.718;2022-11-15T14:30:45;10.18;;;4.72;;
74233;SDS011;62591;55.764;37.718;2022-11-15T14:33:18;14.32;;;5.00;;
74233;SDS011;62591;55.764;37.718;2022-11-15T14:35:49;12.20;;;4.82;;
74233;SDS011;62591;55.764;37.718;2022-11-15T14:38:19;19.65;;;7.30;;
74233;SDS011;62591;55.764;37.718;2022-11-15T14:40:48;9.15;;;4.22;;
74233;SDS011;62591;55.764;37.718;2022-11-15T14:43:18;11.70;;;5.40;;
74233;SDS011;62591;55.764;37.718;2022-11-15T14:45:46;25.25;;;9.23;;
74233;SDS011;62591;55.764;37.718;2022-11-15T14:48:15;13.40;;;5.50;;
74233;SDS011;62591;55.764;37.718;2022-11-15T14:50:44;16.17;;;4.97;;
74233;SDS011;62591;55.764;37.718;2022-11-15T14:53:13;11.07;;;4.72;;
74233;SDS011;62591;55.764;37.718;2022-11-15T14:55:46;12.32;;;4.70;;
74233;SDS011;62591;55.764;37.718;2022-11-15T14:58:16;10.73;;;4.88;;
74233;SDS011;62591;55.764;37.718;2022-11-15T15:00:45;10.82;;;4.95;;
74233;SDS011;62591;55.764;37.718;2022-11-15T15:03:13;7.65;;;4.40;;
74233;SDS011;62591;55.764;37.718;2022-11-15T15:05:42;16.58;;;5.55;;
74233;SDS011;62591;55.764;37.718;2022-11-15T15:08:11;13.20;;;5.47;;
74233;SDS011;62591;55.764;37.718;2022-11-15T15:10:40;19.05;;;8.15;;
74233;SDS011;62591;55.764;37.718;2022-11-15T15:13:15;19.98;;;7.93;;
74233;SDS011;62591;55.764;37.718;2022-11-15T15:15:46;13.85;;;5.85;;
74233;SDS011;62591;55.764;37.718;2022-11-15T15:18:15;12.60;;;6.25;;
74233;SDS011;62591;55.764;37.718;2022-11-15T15:20:47;12.05;;;6.57;;
74233;SDS011;62591;55.764;37.718;2022-11-15T15:23:24;12.18;;;5.43;;
74233;SDS011;62591;55.764;37.718;2022-11-15T15:25:56;12.52;;;6.03;;
74233;SDS011;62591;55.764;37.718;2022-11-15T15:28:26;15.52;;;6.53;;
74233;SDS011;62591;55.764;37.718;2022-11-15T15:31:00;12.20;;;6.20;;
74233;SDS011;62591;55.764;37.718;2022-11-15T15:33:28;12.02;;;4.85;;
74233;SDS011;62591;55.764;37.718;2022-11-15T15:35:57;15.15;;;6.38;;
74233;SDS011;62591;55.764;37.718;2022-11-15T15:38:26;14.82;;;4.68;;
74233;SDS011;62591;55.764;37.718;2022-11-15T15:40:54;10.13;;;4.85;;
74233;SDS011;62591;55.764;37.718;2022-11-15T15:43:23;11.35;;;5.28;;
74233;SDS011;62591;55.764;37.718;2022-11-15T15:45:52;8.18;;;3.83;;
74233;SDS011;62591;55.764;37.718;2022-11-15T15:48:22;12.45;;;4.43;;
74233;SDS011;62591;55.764;37.718;2022-11-15T15:50:50;10.98;;;4.07;;
74233;SDS011;62591;55.764;37.718;2022-11-15T15:53:19;8.02;;;3.88;;
74233;SDS011;62591;55.764;37.718;2022-11-15T15:55:47;10.00;;;4.63;;
74233;SDS011;62591;55.764;37.718;2022-11-15T15:58:16;11.13;;;4.38;;
74233;SDS011;62591;55.764;37.718;2022-11-15T16:00:53;14.35;;;5.57;;
74233;SDS011;62591;55.764;37.718;2022-11-15T16:03:22;14.98;;;6.72;;
74233;SDS011;62591;55.764;37.718;2022-11-15T16:05:51;9.77;;;5.63;;
74233;SDS011;62591;55.764;37.718;2022-11-15T16:08:20;9.98;;;5.15;;
74233;SDS011;62591;55.764;37.718;2022-11-15T16:10:49;12.32;;;5.07;;
74233;SDS011;62591;55.764;37.718;2022-11-15T16:13:18;13.02;;;6.72;;
74233;SDS011;62591;55.764;37.718;2022-11-15T16:15:47;19.45;;;8.43;;
74233;SDS011;62591;55.764;37.718;2022-11-15T16:18:20;15.95;;;7.93;;
74233;SDS011;62591;55.764;37.718;2022-11-15T16:20:49;13.68;;;6.55;;
74233;SDS011;62591;55.764;37.718;2022-11-15T16:23:23;19.02;;;6.80;;
74233;SDS011;62591;55.764;37.718;2022-11-15T16:25:51;14.23;;;7.05;;
74233;SDS011;62591;55.764;37.718;2022-11-15T16:28:24;10.43;;;4.97;;
74233;SDS011;62591;55.764;37.718;2022-11-15T16:31:01;9.90;;;5.20;;
74233;SDS011;62591;55.764;37.718;2022-11-15T16:33:32;10.50;;;5.38;;
74233;SDS011;62591;55.764;37.718;2022-11-15T16:36:02;12.70;;;6.05;;
74233;SDS011;62591;55.764;37.718;2022-11-15T16:38:31;11.00;;;5.13;;
74233;SDS011;62591;55.764;37.718;2022-11-15T16:41:01;8.73;;;4.65;;